Time;durP1;ratioP1;P1;durP2;ratioP2;P2;SDS_P1;SDS_P2;PMS_P1;PMS_P2;Temp;Humidity;BMP_temperature;BMP_pressure;BME280_temperature;BME280_humidity;BME280_pressure;Samples;Min_cycle;Max_cycle;Signal;HPM_P1;HPM_P2
2021/12/08 00:00:24;;;;;;;24.57;10.23;;;-3.80;97.40;;;;;;5068951;28;20193;-66
2021/12/08 00:02:51;;;;;;;21.93;9.30;;;-3.80;97.60;;;;;;5055386;28;20259;-65
2021/12/08 00:05:20;;;;;;;24.70;9.73;;;-3.80;97.30;;;;;;5057369;28;20200;-64
2021/12/08 00:07:51;;;;;;;19.73;8.37;;;-3.50;97.40;;;;;;5066674;28;20549;-65
2021/12/08 00:10:50;;;;;;;32.47;11.40;;;-3.70;97.30;;;;;;5056451;28;20276;-64
2021/12/08 00:13:17;;;;;;;25.97;10.90;;;-3.80;97.20;;;;;;5067727;28;20269;-66
2021/12/08 00:15:46;;;;;;;31.07;11.83;;;-3.90;97.10;;;;;;5064481;28;20289;-66
2021/12/08 00:18:16;;;;;;;27.17;10.17;;;-4.00;97.10;;;;;;5060827;28;20216;-65
2021/12/08 00:20:46;;;;;;;18.43;8.37;;;-4.10;97.20;;;;;;5063443;28;20205;-64
2021/12/08 00:23:15;;;;;;;25.37;10.17;;;-3.70;97.60;;;;;;5060662;28;20269;-65
2021/12/08 00:25:42;;;;;;;24.87;10.27;;;-4.10;97.50;;;;;;5067564;28;20205;-64
2021/12/08 00:28:10;;;;;;;33.63;12.83;;;-4.00;97.60;;;;;;5067489;28;20650;-64
2021/12/08 00:30:42;;;;;;;26.53;11.03;;;-4.00;97.50;;;;;;5066661;28;20709;-64
2021/12/08 00:33:10;;;;;;;46.93;15.60;;;-4.00;97.50;;;;;;5049689;28;20300;-65
2021/12/08 00:35:38;;;;;;;34.83;13.60;;;-4.00;97.40;;;;;;5063948;28;20233;-65
2021/12/08 00:38:06;;;;;;;35.60;13.53;;;-4.10;97.80;;;;;;5044349;28;20220;-65
2021/12/08 00:40:33;;;;;;;33.37;12.97;;;-4.10;97.70;;;;;;5067081;28;20620;-64
2021/12/08 00:43:01;;;;;;;27.53;11.53;;;-4.20;97.80;;;;;;5066455;28;20250;-65
2021/12/08 00:45:30;;;;;;;25.00;10.50;;;-4.20;98.00;;;;;;5067863;28;20211;-65
2021/12/08 00:47:59;;;;;;;24.03;9.03;;;-4.10;98.10;;;;;;5067052;28;20208;-64
2021/12/08 00:50:30;;;;;;;27.63;10.57;;;-4.10;98.20;;;;;;5062727;28;20558;-65
2021/12/08 00:52:58;;;;;;;20.03;8.57;;;-3.60;98.40;;;;;;5070772;28;20662;-65
2021/12/08 00:55:27;;;;;;;22.20;9.00;;;-4.00;98.20;;;;;;5050940;28;20205;-65
2021/12/08 00:57:54;;;;;;;25.23;9.90;;;-3.90;98.20;;;;;;5063079;28;20357;-65
2021/12/08 01:00:25;;;;;;;20.80;9.87;;;-3.60;98.30;;;;;;5040967;28;20201;-65
2021/12/08 01:02:52;;;;;;;21.37;8.97;;;-3.70;98.30;;;;;;5053413;28;20304;-63
2021/12/08 01:05:26;;;;;;;46.77;15.93;;;-3.70;98.30;;;;;;5065318;28;20251;-65
2021/12/08 01:07:53;;;;;;;53.57;16.40;;;-3.70;98.60;;;;;;5052388;28;20251;-66
2021/12/08 01:10:22;;;;;;;37.97;13.97;;;-3.50;98.80;;;;;;5065489;28;20189;-64
2021/12/08 01:12:51;;;;;;;47.07;16.70;;;-3.70;98.70;;;;;;5042161;28;20205;-65
2021/12/08 01:15:19;;;;;;;50.80;16.83;;;-3.80;98.90;;;;;;5071387;28;20295;-64
2021/12/08 01:17:46;;;;;;;46.07;14.80;;;-3.90;99.30;;;;;;5071440;28;20244;-64
2021/12/08 01:20:15;;;;;;;44.53;15.53;;;-4.00;99.60;;;;;;5053066;28;20209;-64
2021/12/08 01:22:46;;;;;;;39.73;14.17;;;-4.10;99.90;;;;;;5059726;28;20964;-65
2021/12/08 01:25:13;;;;;;;35.47;12.90;;;-4.20;99.90;;;;;;5069837;28;20204;-65
2021/12/08 01:27:41;;;;;;;46.10;14.77;;;-4.20;99.90;;;;;;5071950;28;20226;-65
2021/12/08 01:30:10;;;;;;;50.33;16.77;;;-4.20;99.90;;;;;;5069740;28;20674;-65
2021/12/08 01:32:37;;;;;;;37.33;12.93;;;-4.20;99.90;;;;;;5071799;28;20201;-64
2021/12/08 01:35:06;;;;;;;34.47;13.40;;;-4.20;99.90;;;;;;5062886;28;20262;-64
2021/12/08 01:37:34;;;;;;;34.30;12.23;;;-4.10;99.90;;;;;;5054855;28;20194;-65
2021/12/08 01:40:05;;;;;;;31.40;11.87;;;-4.10;99.90;;;;;;5061595;28;20209;-65
2021/12/08 01:42:36;;;;;;;37.60;11.77;;;-4.10;99.90;;;;;;5060338;28;20652;-65
2021/12/08 01:47:50;;;;;;;35.43;13.83;;;-4.00;99.90;;;;;;5071883;28;20201;-65
2021/12/08 01:50:17;;;;;;;35.63;13.23;;;-3.90;99.90;;;;;;5068882;28;20251;-65
2021/12/08 01:52:44;;;;;;;39.33;14.30;;;-3.90;99.90;;;;;;5065681;28;20197;-66
2021/12/08 01:55:13;;;;;;;41.87;15.27;;;-3.80;99.90;;;;;;5071409;28;20289;-65
2021/12/08 01:57:42;;;;;;;36.57;14.00;;;-3.80;99.90;;;;;;5071328;28;20336;-65
2021/12/08 02:00:14;;;;;;;40.00;13.00;;;-3.80;99.90;;;;;;5071498;28;20228;-66
2021/12/08 02:02:41;;;;;;;39.07;13.17;;;-2.70;99.90;;;;;;5065797;28;20205;-64
2021/12/08 02:05:09;;;;;;;31.20;12.77;;;-3.90;99.90;;;;;;5063395;28;20201;-65
2021/12/08 02:07:36;;;;;;;29.07;11.03;;;-3.90;99.90;;;;;;5057013;28;20193;-64
2021/12/08 02:10:04;;;;;;;31.80;12.03;;;-3.90;99.90;;;;;;5070835;28;20642;-65
2021/12/08 02:12:36;;;;;;;31.30;11.33;;;-3.90;99.90;;;;;;5065285;28;20206;-65
2021/12/08 02:15:04;;;;;;;32.07;10.40;;;-3.90;99.90;;;;;;5064436;28;20281;-65
2021/12/08 02:17:32;;;;;;;37.13;13.20;;;-4.00;99.90;;;;;;5066717;28;20193;-65
2021/12/08 02:19:59;;;;;;;44.53;14.30;;;-4.00;99.90;;;;;;5060394;28;20193;-65
2021/12/08 02:22:28;;;;;;;32.30;11.50;;;-3.90;99.90;;;;;;5065607;28;20287;-63
2021/12/08 02:24:55;;;;;;;28.10;10.43;;;-3.80;99.90;;;;;;5059948;28;20205;-65
2021/12/08 02:27:22;;;;;;;29.07;10.67;;;-3.70;99.90;;;;;;5056144;28;20198;-64
2021/12/08 02:29:56;;;;;;;25.10;9.93;;;-3.60;99.90;;;;;;5045591;28;20233;-65
2021/12/08 02:46:37;;;;;;;24.97;9.67;;;-3.50;99.90;;;;;;5051179;28;20520;-65
2021/12/08 02:46:48;;;;;;;29.30;10.40;;;-3.50;99.90;;;;;;5059523;28;20201;-64
2021/12/08 02:49:16;;;;;;;32.03;12.77;;;-3.90;99.90;;;;;;5063064;28;20240;-65
2021/12/08 02:51:45;;;;;;;30.93;12.63;;;-3.70;99.90;;;;;;5062688;28;20200;-65
2021/12/08 02:54:14;;;;;;;35.87;12.77;;;-3.80;99.90;;;;;;5056672;28;20197;-65
2021/12/08 02:56:41;;;;;;;36.53;12.23;;;-3.80;99.90;;;;;;5062501;28;20193;-65
2021/12/08 02:59:09;;;;;;;27.40;11.13;;;-3.60;99.90;;;;;;5063779;28;20215;-64
2021/12/08 03:01:38;;;;;;;25.20;10.27;;;-3.80;99.90;;;;;;5047357;28;20197;-65
2021/12/08 03:04:07;;;;;;;20.67;8.20;;;-3.80;99.90;;;;;;5057471;28;20209;-64
2021/12/08 03:06:35;;;;;;;22.50;8.83;;;-3.80;99.90;;;;;;5043984;28;20638;-63
2021/12/08 03:09:04;;;;;;;24.07;9.27;;;-3.40;99.90;;;;;;5068944;28;20228;-64
2021/12/08 03:11:32;;;;;;;23.03;9.33;;;-3.60;99.90;;;;;;5069504;28;20243;-65
2021/12/08 03:14:05;;;;;;;25.93;9.20;;;-3.60;99.90;;;;;;5065774;28;20197;-65
2021/12/08 03:16:34;;;;;;;21.97;8.87;;;-3.60;99.90;;;;;;5066217;28;20284;-64
2021/12/08 03:19:01;;;;;;;21.27;8.53;;;-3.60;99.90;;;;;;5067652;28;20293;-64
2021/12/08 03:21:31;;;;;;;17.17;7.83;;;-3.60;99.90;;;;;;5058933;28;20204;-65
2021/12/08 03:24:12;;;;;;;21.00;7.87;;;-3.60;99.90;;;;;;5063822;28;20204;-66
2021/12/08 03:26:53;;;;;;;20.77;8.07;;;-3.40;99.90;;;;;;5051209;28;20208;-65
2021/12/08 03:29:27;;;;;;;25.00;9.40;;;-3.50;99.90;;;;;;5060866;28;20228;-66
2021/12/08 03:32:03;;;;;;;22.13;9.30;;;-3.50;99.90;;;;;;5058671;28;20209;-65
2021/12/08 03:34:31;;;;;;;26.43;10.13;;;-3.00;99.90;;;;;;5069900;28;20196;-65
2021/12/08 03:36:59;;;;;;;21.83;9.07;;;-3.50;99.90;;;;;;5065299;28;20193;-65
2021/12/08 03:39:27;;;;;;;21.57;8.70;;;-3.60;99.90;;;;;;5068502;28;20209;-65
2021/12/08 03:41:57;;;;;;;24.73;9.50;;;-3.60;99.90;;;;;;5068806;28;20223;-65
2021/12/08 03:44:24;;;;;;;19.07;7.70;;;-3.60;99.90;;;;;;5069147;28;20266;-65
2021/12/08 03:46:59;;;;;;;25.10;8.83;;;-3.60;99.90;;;;;;5068498;28;20216;-66
2021/12/08 03:49:26;;;;;;;21.53;8.40;;;-3.60;99.90;;;;;;5064834;28;20275;-65
2021/12/08 03:51:56;;;;;;;28.97;10.50;;;-3.60;99.90;;;;;;5067926;28;20561;-64
2021/12/08 03:54:24;;;;;;;22.40;9.60;;;-3.60;99.90;;;;;;5068009;28;20461;-64
2021/12/08 03:56:51;;;;;;;23.73;9.83;;;-3.60;99.90;;;;;;5068114;28;20192;-65
2021/12/08 03:59:22;;;;;;;25.57;9.10;;;-3.60;99.90;;;;;;5068702;28;20597;-64
2021/12/08 04:01:49;;;;;;;19.33;8.03;;;-3.60;99.90;;;;;;5062885;28;20220;-65
2021/12/08 04:04:17;;;;;;;21.27;8.63;;;-3.70;99.90;;;;;;5064998;28;20221;-64
2021/12/08 04:06:48;;;;;;;26.57;9.90;;;-3.70;99.90;;;;;;5059115;28;20193;-65
2021/12/08 04:09:25;;;;;;;20.87;9.07;;;-3.50;99.90;;;;;;5055963;28;20294;-64
2021/12/08 04:11:53;;;;;;;24.43;9.03;;;-3.60;99.90;;;;;;5067152;28;20253;-65
2021/12/08 04:14:26;;;;;;;22.23;8.47;;;-3.60;99.90;;;;;;5050058;28;20196;-64
2021/12/08 04:16:57;;;;;;;18.07;8.13;;;-3.20;99.90;;;;;;5033727;28;20204;-65
2021/12/08 04:19:26;;;;;;;21.33;8.83;;;-3.50;99.90;;;;;;5069269;28;20642;-65
2021/12/08 04:21:56;;;;;;;16.03;7.40;;;-3.50;99.90;;;;;;5056764;28;20301;-65
2021/12/08 04:24:24;;;;;;;15.90;7.30;;;-3.50;99.90;;;;;;5050565;28;20611;-66
2021/12/08 04:26:55;;;;;;;16.47;7.23;;;-3.40;99.90;;;;;;5053774;28;20229;-65
2021/12/08 04:29:27;;;;;;;21.23;9.20;;;-3.50;99.90;;;;;;5056799;28;20236;-65
2021/12/08 04:31:55;;;;;;;18.87;8.73;;;-3.50;99.90;;;;;;5064083;28;20657;-65
2021/12/08 04:34:27;;;;;;;16.90;7.57;;;-3.60;99.90;;;;;;5052884;28;20773;-65
2021/12/08 04:37:00;;;;;;;13.87;6.23;;;-3.50;99.90;;;;;;5055850;28;20204;-64
2021/12/08 04:39:39;;;;;;;15.03;6.37;;;-3.50;99.90;;;;;;5054288;28;20201;-65
2021/12/08 04:42:12;;;;;;;15.00;6.43;;;-3.50;99.90;;;;;;5062921;28;20600;-65
2021/12/08 04:44:46;;;;;;;16.83;7.27;;;-3.60;99.90;;;;;;5055109;28;20193;-64
2021/12/08 04:47:34;;;;;;;16.80;7.37;;;-3.60;99.90;;;;;;5053952;28;20500;-65
2021/12/08 04:53:00;;;;;;;12.10;5.67;;;-3.40;99.90;;;;;;5055689;28;20581;-65
2021/12/08 05:04:10;;;;;;;23.20;9.40;;;-3.30;99.90;;;;;;5067411;28;20213;-62
2021/12/08 05:06:50;;;;;;;18.73;7.63;;;-3.30;99.90;;;;;;5048638;28;20202;-65
2021/12/08 05:09:20;;;;;;;22.03;9.10;;;-3.40;99.90;;;;;;5057378;28;20285;-64
2021/12/08 05:11:53;;;;;;;21.67;9.20;;;-3.30;99.90;;;;;;5067912;28;20662;-64
2021/12/08 05:14:24;;;;;;;18.20;8.20;;;-3.50;99.90;;;;;;5062728;28;20188;-64
2021/12/08 05:16:58;;;;;;;23.07;9.60;;;-3.50;99.90;;;;;;5065704;28;20284;-64
2021/12/08 05:19:32;;;;;;;17.33;8.47;;;-3.50;99.90;;;;;;5065802;28;20743;-64
2021/12/08 05:22:09;;;;;;;14.23;7.37;;;-3.30;99.90;;;;;;5062185;28;20296;-65
2021/12/08 05:24:40;;;;;;;16.13;6.90;;;-3.60;99.90;;;;;;5062074;28;20609;-64
2021/12/08 05:27:12;;;;;;;15.83;7.27;;;-3.60;99.90;;;;;;5066944;28;20221;-64
2021/12/08 05:29:42;;;;;;;16.07;7.73;;;-3.60;99.90;;;;;;5066077;28;20229;-64
2021/12/08 05:32:12;;;;;;;18.60;7.17;;;-3.50;99.90;;;;;;5056754;28;20300;-64
2021/12/08 05:34:40;;;;;;;24.27;10.00;;;-3.50;99.90;;;;;;5062423;28;20201;-64
2021/12/08 05:37:10;;;;;;;20.93;9.57;;;-3.30;99.90;;;;;;5061767;28;20201;-65
2021/12/08 05:39:38;;;;;;;20.40;9.13;;;-3.60;99.90;;;;;;5066960;28;20776;-65
2021/12/08 05:42:10;;;;;;;17.23;8.33;;;-3.60;99.90;;;;;;5064713;28;20242;-64
2021/12/08 05:44:39;;;;;;;20.40;9.00;;;-3.60;99.90;;;;;;5065026;28;20197;-65
2021/12/08 05:47:09;;;;;;;18.13;7.93;;;-3.60;99.90;;;;;;5069544;28;20650;-64
2021/12/08 05:49:39;;;;;;;21.93;9.03;;;-3.60;99.90;;;;;;5071271;28;20212;-64
2021/12/08 05:52:07;;;;;;;20.83;8.87;;;-3.60;99.90;;;;;;5067741;28;20665;-64
2021/12/08 05:54:38;;;;;;;15.57;7.40;;;-3.70;99.90;;;;;;5048144;28;20304;-65
2021/12/08 05:57:08;;;;;;;19.80;8.23;;;-3.70;99.90;;;;;;5069844;28;20250;-65
2021/12/08 05:59:36;;;;;;;14.70;6.67;;;-3.70;99.90;;;;;;5070694;28;20520;-65
2021/12/08 06:02:07;;;;;;;13.97;6.90;;;-3.70;99.90;;;;;;5060597;28;20193;-65
2021/12/08 06:04:34;;;;;;;15.67;6.93;;;-3.50;99.90;;;;;;5051768;28;20278;-64
2021/12/08 06:07:05;;;;;;;17.57;7.73;;;-3.70;99.90;;;;;;5068936;28;20193;-64
2021/12/08 06:09:35;;;;;;;14.83;7.20;;;-3.80;99.90;;;;;;5062577;28;20694;-64
2021/12/08 06:12:06;;;;;;;17.23;7.23;;;-3.80;99.90;;;;;;5065995;28;20193;-65
2021/12/08 06:14:34;;;;;;;18.93;7.90;;;-3.90;99.90;;;;;;5068184;28;20612;-64
2021/12/08 06:17:04;;;;;;;13.57;7.10;;;-3.80;99.90;;;;;;5061808;28;20205;-64
2021/12/08 06:19:31;;;;;;;19.83;8.63;;;-3.80;99.90;;;;;;5065782;28;20224;-65
2021/12/08 06:21:59;;;;;;;17.90;8.17;;;-3.80;99.90;;;;;;5061976;28;20266;-64
2021/12/08 06:24:29;;;;;;;17.43;8.60;;;-2.10;99.90;;;;;;5044020;28;20674;-65
2021/12/08 06:26:56;;;;;;;21.30;8.53;;;-3.80;99.90;;;;;;5049999;28;20201;-65
2021/12/08 06:29:24;;;;;;;19.97;8.30;;;-3.70;99.90;;;;;;5065238;28;20256;-65
2021/12/08 06:31:55;;;;;;;17.70;7.07;;;-3.70;99.90;;;;;;5064536;28;20189;-64
2021/12/08 06:34:23;;;;;;;16.57;8.03;;;-3.70;99.90;;;;;;5064488;28;20200;-64
2021/12/08 06:36:53;;;;;;;16.17;7.13;;;-3.50;99.90;;;;;;5064167;28;20209;-64
2021/12/08 06:39:30;;;;;;;16.07;7.67;;;-3.70;99.90;;;;;;5064029;28;20540;-64
2021/12/08 06:42:01;;;;;;;25.30;9.87;;;-3.40;99.90;;;;;;5065799;28;20593;-64
2021/12/08 06:44:32;;;;;;;21.17;8.57;;;-3.70;99.90;;;;;;5046416;28;20196;-64
2021/12/08 06:47:04;;;;;;;22.60;8.70;;;-3.70;99.90;;;;;;5058892;28;20193;-63
2021/12/08 06:49:31;;;;;;;16.93;7.17;;;-3.60;99.90;;;;;;5064676;28;20185;-65
2021/12/08 06:52:01;;;;;;;15.13;7.03;;;-3.70;99.90;;;;;;5045141;28;20243;-65
2021/12/08 06:54:35;;;;;;;12.13;6.03;;;-3.70;99.90;;;;;;5065001;28;20197;-65
2021/12/08 06:57:05;;;;;;;15.17;6.67;;;-3.70;99.90;;;;;;5063564;28;20624;-64
2021/12/08 06:59:39;;;;;;;21.93;8.90;;;-3.70;99.90;;;;;;5066769;28;20209;-64
2021/12/08 07:02:18;;;;;;;26.40;11.23;;;-3.70;99.90;;;;;;5068844;28;20650;-65
2021/12/08 07:04:56;;;;;;;19.30;7.87;;;-3.60;99.90;;;;;;5071009;28;20204;-65
2021/12/08 07:07:26;;;;;;;19.60;7.90;;;-3.60;99.90;;;;;;5056275;28;20188;-65
2021/12/08 07:10:00;;;;;;;24.60;9.53;;;-3.60;99.90;;;;;;5069021;28;20601;-65
2021/12/08 07:12:30;;;;;;;23.23;10.07;;;-3.50;99.90;;;;;;5062694;28;20578;-65
2021/12/08 07:15:03;;;;;;;18.20;8.63;;;-3.50;99.90;;;;;;5055632;28;20709;-64
2021/12/08 07:17:37;;;;;;;17.50;8.13;;;-3.50;99.90;;;;;;5061695;28;20677;-65
2021/12/08 07:20:17;;;;;;;17.17;7.10;;;-3.50;99.90;;;;;;5064501;28;20236;-65
2021/12/08 07:22:46;;;;;;;19.00;7.93;;;-3.50;99.90;;;;;;5050538;28;20216;-64
2021/12/08 07:25:17;;;;;;;19.37;7.47;;;-3.60;99.90;;;;;;5065753;28;20193;-64
2021/12/08 07:27:46;;;;;;;18.20;7.07;;;-3.60;99.90;;;;;;5067505;28;20196;-64
2021/12/08 07:30:16;;;;;;;14.70;6.50;;;-3.50;99.90;;;;;;5065018;28;20221;-65
2021/12/08 07:32:43;;;;;;;12.07;6.23;;;-3.50;99.90;;;;;;5068519;28;20599;-65
2021/12/08 07:35:14;;;;;;;14.40;7.20;;;-3.50;99.90;;;;;;5064618;28;20205;-65
2021/12/08 07:37:41;;;;;;;14.60;6.90;;;-3.50;99.90;;;;;;5062683;28;20220;-64
2021/12/08 07:40:14;;;;;;;10.93;5.97;;;-3.40;99.90;;;;;;5067454;28;20244;-64
2021/12/08 07:42:47;;;;;;;12.57;6.17;;;-3.40;99.90;;;;;;5061844;28;20189;-65
2021/12/08 07:45:18;;;;;;;15.73;6.63;;;-3.40;99.90;;;;;;5068072;28;20562;-65
2021/12/08 07:47:46;;;;;;;11.83;6.10;;;-3.50;99.90;;;;;;5044131;28;20201;-65
2021/12/08 07:50:20;;;;;;;13.63;6.63;;;-3.50;99.90;;;;;;5068628;28;20199;-65
2021/12/08 07:52:51;;;;;;;18.47;8.63;;;-3.50;99.90;;;;;;5061195;28;20224;-65
2021/12/08 07:55:22;;;;;;;16.23;7.50;;;-2.90;99.90;;;;;;5067795;28;20197;-65
2021/12/08 07:57:52;;;;;;;17.30;8.40;;;-3.40;99.90;;;;;;5067697;28;20295;-64
2021/12/08 08:00:23;;;;;;;13.53;6.97;;;-3.10;99.90;;;;;;5062837;28;20221;-64
2021/12/08 08:02:52;;;;;;;14.53;6.67;;;-3.40;99.90;;;;;;5068208;28;20280;-65
2021/12/08 08:05:22;;;;;;;20.17;7.83;;;-3.30;99.90;;;;;;5067316;28;20202;-65
2021/12/08 08:07:50;;;;;;;16.17;7.17;;;-2.30;99.90;;;;;;5067028;28;20279;-64
2021/12/08 08:10:18;;;;;;;20.33;9.20;;;-3.60;99.90;;;;;;5064871;28;20519;-64
2021/12/08 08:12:48;;;;;;;25.40;9.70;;;-3.60;99.90;;;;;;5068115;28;20208;-64
2021/12/08 08:15:21;;;;;;;26.67;9.53;;;-2.70;99.90;;;;;;5062788;28;20220;-64
2021/12/08 08:17:52;;;;;;;22.70;8.63;;;-3.70;99.90;;;;;;5065844;28;20195;-67
2021/12/08 08:20:28;;;;;;;22.30;8.40;;;-3.70;99.90;;;;;;5053457;28;20205;-65
2021/12/08 08:22:56;;;;;;;20.77;8.97;;;-3.70;99.90;;;;;;5059732;28;20250;-64
2021/12/08 08:25:26;;;;;;;21.50;7.30;;;-3.50;99.90;;;;;;5062604;28;20193;-65
2021/12/08 08:27:53;;;;;;;15.03;7.13;;;-3.70;99.90;;;;;;5062227;28;20629;-65
2021/12/08 08:30:25;;;;;;;17.73;8.10;;;-3.70;99.90;;;;;;5066845;28;20225;-65
2021/12/08 08:32:55;;;;;;;23.00;10.60;;;-3.70;99.90;;;;;;5049482;28;20200;-65
2021/12/08 08:35:36;;;;;;;18.43;8.93;;;-3.80;99.90;;;;;;5062711;28;20198;-64
2021/12/08 08:38:07;;;;;;;22.17;9.37;;;-3.80;99.90;;;;;;5046552;28;20219;-64
2021/12/08 08:40:42;;;;;;;19.20;8.77;;;-3.90;99.90;;;;;;5060300;28;20285;-65
2021/12/08 08:43:11;;;;;;;21.53;9.63;;;-3.90;99.90;;;;;;5063150;28;20385;-64
2021/12/08 08:45:44;;;;;;;23.30;10.20;;;-3.80;99.90;;;;;;5060365;28;20554;-65
2021/12/08 08:48:14;;;;;;;22.87;10.57;;;-3.90;99.90;;;;;;5066969;28;20200;-65
2021/12/08 08:50:48;;;;;;;22.47;9.77;;;-3.90;99.90;;;;;;5066579;28;20661;-64
2021/12/08 08:53:17;;;;;;;22.53;9.93;;;-3.90;99.90;;;;;;5064013;28;20208;-64
2021/12/08 08:55:49;;;;;;;24.00;10.00;;;-4.00;99.90;;;;;;5066731;28;20658;-65
2021/12/08 08:58:17;;;;;;;24.47;10.57;;;-4.00;99.90;;;;;;5063600;28;20623;-64
2021/12/08 09:00:50;;;;;;;27.37;10.53;;;-4.00;99.90;;;;;;5066607;28;20609;-64
2021/12/08 09:03:20;;;;;;;19.40;8.90;;;-3.80;99.90;;;;;;5067214;28;20281;-64
2021/12/08 09:05:52;;;;;;;20.40;9.73;;;-4.10;99.90;;;;;;5062706;28;20276;-65
2021/12/08 09:08:24;;;;;;;29.03;12.67;;;-4.00;99.90;;;;;;5060515;28;20266;-65
2021/12/08 09:10:56;;;;;;;24.30;11.63;;;-4.00;99.90;;;;;;5058031;28;20570;-64
2021/12/08 09:13:29;;;;;;;23.57;10.53;;;-3.60;99.90;;;;;;5062994;28;20586;-65
2021/12/08 09:16:02;;;;;;;25.53;11.20;;;-4.00;99.90;;;;;;5053332;28;20213;-65
2021/12/08 09:18:38;;;;;;;22.70;9.73;;;-4.10;99.90;;;;;;5064722;28;20278;-65
2021/12/08 09:21:14;;;;;;;25.60;10.60;;;-3.70;99.90;;;;;;5067693;28;20211;-65
2021/12/08 09:23:50;;;;;;;21.00;9.40;;;-4.20;99.90;;;;;;5066940;28;20193;-65
2021/12/08 09:26:22;;;;;;;27.07;12.10;;;-4.30;99.90;;;;;;5067371;28;20733;-65
2021/12/08 09:28:52;;;;;;;22.70;9.63;;;-4.30;99.90;;;;;;5056815;28;20264;-64
2021/12/08 09:31:27;;;;;;;23.27;10.67;;;-4.40;99.90;;;;;;5064971;28;20237;-65
2021/12/08 09:33:57;;;;;;;25.90;10.67;;;-4.40;99.90;;;;;;5066997;28;20565;-65
2021/12/08 09:36:29;;;;;;;24.07;10.43;;;-4.40;99.90;;;;;;5064669;28;20607;-65
2021/12/08 09:39:00;;;;;;;29.40;11.90;;;-4.40;99.90;;;;;;5066329;28;20197;-65
2021/12/08 09:41:36;;;;;;;26.43;10.57;;;-4.50;99.90;;;;;;5064815;28;20291;-65
2021/12/08 09:44:08;;;;;;;20.30;9.37;;;-4.60;99.90;;;;;;5062576;28;20280;-64
2021/12/08 09:46:40;;;;;;;24.70;10.73;;;-4.40;99.90;;;;;;5066115;28;20202;-65
2021/12/08 09:49:12;;;;;;;31.37;12.23;;;-4.40;99.90;;;;;;5068498;28;20275;-65
2021/12/08 09:51:44;;;;;;;27.53;11.30;;;-4.40;99.90;;;;;;5066208;28;20200;-65
2021/12/08 09:54:11;;;;;;;27.03;11.57;;;-4.40;99.90;;;;;;5067466;28;20557;-64
2021/12/08 09:56:40;;;;;;;29.93;12.57;;;-4.50;99.90;;;;;;5060725;28;20220;-75
2021/12/08 09:59:11;;;;;;;41.57;15.93;;;-4.40;99.90;;;;;;5049568;28;20618;-73
2021/12/08 10:01:41;;;;;;;37.27;14.57;;;-4.40;99.90;;;;;;5064113;28;20283;-74
2021/12/08 10:04:15;;;;;;;41.75;17.33;;;-4.40;99.90;;;;;;5050519;28;20467;-73
2021/12/08 10:06:50;;;;;;;39.20;16.27;;;-3.60;99.90;;;;;;5059973;28;20543;-73
2021/12/08 10:09:19;;;;;;;36.57;14.30;;;-4.40;99.90;;;;;;5064904;28;20688;-74
2021/12/08 10:11:47;;;;;;;33.87;13.30;;;-4.40;99.90;;;;;;5055705;28;20235;-73
2021/12/08 10:14:15;;;;;;;33.03;13.97;;;-4.40;99.90;;;;;;5064984;28;20204;-75
2021/12/08 10:16:45;;;;;;;35.77;14.63;;;-4.50;99.90;;;;;;5051699;28;20272;-74
2021/12/08 10:19:15;;;;;;;33.20;12.27;;;-4.50;99.90;;;;;;5063960;28;20289;-73
2021/12/08 10:21:43;;;;;;;38.33;15.63;;;-4.50;99.90;;;;;;5061615;28;20314;-74
2021/12/08 10:24:19;;;;;;;39.37;15.73;;;-3.70;99.90;;;;;;5061933;28;20563;-74
2021/12/08 10:26:48;;;;;;;34.23;14.13;;;-4.40;99.90;;;;;;5051341;28;20216;-74
2021/12/08 10:29:15;;;;;;;36.80;15.23;;;-4.10;99.90;;;;;;5049992;28;20605;-74
2021/12/08 10:31:49;;;;;;;38.93;17.03;;;-4.50;99.80;;;;;;5049946;28;20201;-74
2021/12/08 10:34:31;;;;;;;39.93;16.57;;;-4.50;99.80;;;;;;5053929;28;20194;-75
2021/12/08 10:37:07;;;;;;;43.07;16.73;;;-4.40;99.50;;;;;;5047557;28;20263;-74
2021/12/08 10:39:41;;;;;;;36.87;15.63;;;-4.50;99.30;;;;;;5033420;28;20198;-73
2021/12/08 10:42:13;;;;;;;37.90;14.70;;;-4.50;99.10;;;;;;5056168;28;20771;-74
2021/12/08 10:44:47;;;;;;;34.40;13.80;;;-4.00;99.40;;;;;;5053938;28;20213;-75
2021/12/08 10:47:20;;;;;;;36.43;14.57;;;-2.90;99.80;;;;;;5063106;28;20544;-73
2021/12/08 10:55:39;;;;;;;38.03;16.00;;;-4.50;99.00;;;;;;5050695;28;20193;-73
2021/12/08 10:58:21;;;;;;;41.13;17.07;;;-4.40;98.70;;;;;;5065039;28;20632;-74
2021/12/08 11:00:49;;;;;;;36.30;15.23;;;-4.50;98.50;;;;;;5046704;28;20564;-74
2021/12/08 11:03:17;;;;;;;37.60;15.47;;;-4.50;98.40;;;;;;5069616;28;20193;-73
2021/12/08 11:05:51;;;;;;;37.27;15.80;;;-4.50;98.50;;;;;;5051543;28;20201;-74
2021/12/08 11:08:29;;;;;;;41.07;16.20;;;-4.60;98.30;;;;;;5059573;28;20282;-73
2021/12/08 11:10:59;;;;;;;32.53;13.97;;;-4.60;98.30;;;;;;5049390;28;20204;-74
2021/12/08 11:13:28;;;;;;;33.13;14.07;;;-4.60;98.40;;;;;;5062056;28;20189;-74
2021/12/08 11:16:04;;;;;;;35.00;14.47;;;-4.70;98.20;;;;;;5049172;28;20185;-74
2021/12/08 11:18:38;;;;;;;30.47;14.33;;;-4.60;98.30;;;;;;5064674;28;20556;-74
2021/12/08 11:21:26;;;;;;;39.80;16.60;;;-4.70;98.20;;;;;;5062652;28;20213;-74
2021/12/08 11:23:57;;;;;;;41.47;15.10;;;-4.70;98.20;;;;;;5052968;28;20254;-74
2021/12/08 11:26:26;;;;;;;32.27;12.57;;;-4.10;98.60;;;;;;5052119;28;20216;-74
2021/12/08 11:28:59;;;;;;;29.17;13.40;;;-4.70;98.40;;;;;;5043906;28;20201;-74
2021/12/08 11:31:33;;;;;;;28.50;12.20;;;-4.70;98.40;;;;;;5062042;28;20229;-74
2021/12/08 11:34:18;;;;;;;31.60;12.03;;;-4.70;98.30;;;;;;5043398;28;20232;-73
2021/12/08 11:36:56;;;;;;;35.97;13.77;;;-4.70;98.50;;;;;;5055352;28;20200;-74
2021/12/08 11:39:31;;;;;;;36.07;12.73;;;-4.70;98.60;;;;;;5049585;28;20460;-75
2021/12/08 11:42:06;;;;;;;32.27;12.63;;;-3.80;98.90;;;;;;5057580;28;20213;-74
2021/12/08 11:44:36;;;;;;;27.80;12.63;;;-4.60;98.40;;;;;;5054817;28;20197;-73
2021/12/08 11:47:07;;;;;;;28.23;13.27;;;-4.50;98.50;;;;;;5055708;28;20214;-74
2021/12/08 11:49:42;;;;;;;30.10;12.53;;;-4.50;98.40;;;;;;5041994;28;20630;-73
2021/12/08 11:52:16;;;;;;;27.47;12.60;;;-4.40;98.50;;;;;;5054491;28;20193;-73
2021/12/08 11:54:52;;;;;;;30.17;12.87;;;-4.40;98.40;;;;;;5059331;28;20662;-74
2021/12/08 11:57:22;;;;;;;33.60;13.60;;;-4.50;98.40;;;;;;5047114;28;20609;-75
2021/12/08 12:00:00;;;;;;;32.27;14.50;;;-5.20;98.00;;;;;;5063582;28;20204;-75
2021/12/08 12:02:31;;;;;;;37.23;14.57;;;-4.50;98.30;;;;;;5066659;28;20236;-74
2021/12/08 12:05:01;;;;;;;37.40;13.80;;;-4.50;98.10;;;;;;5068907;28;20197;-75
2021/12/08 12:07:34;;;;;;;30.90;13.00;;;-4.50;98.20;;;;;;5049829;28;20270;-74
2021/12/08 12:10:02;;;;;;;33.23;13.53;;;-4.40;98.40;;;;;;5065312;28;20189;-74
2021/12/08 12:12:29;;;;;;;33.23;13.20;;;-4.50;98.40;;;;;;5050568;28;20221;-74
2021/12/08 12:14:59;;;;;;;37.93;14.60;;;-4.50;98.40;;;;;;5058303;28;20250;-74
2021/12/08 12:17:27;;;;;;;34.37;14.10;;;-4.40;98.50;;;;;;5057057;28;20571;-74
2021/12/08 12:20:03;;;;;;;29.37;13.23;;;-4.40;98.60;;;;;;5059551;28;20204;-74
2021/12/08 12:22:45;;;;;;;33.97;13.50;;;-4.40;98.40;;;;;;5056791;28;20209;-75
2021/12/08 12:25:47;;;;;;;43.67;15.77;;;-4.40;98.40;;;;;;5057644;28;20614;-74
2021/12/08 12:28:42;;;;;;;34.10;14.27;;;-4.40;98.50;;;;;;5061944;28;20193;-75
2021/12/08 12:31:19;;;;;;;31.03;12.27;;;-4.50;98.50;;;;;;5057941;28;20693;-74
2021/12/08 12:33:50;;;;;;;29.53;12.90;;;-4.40;98.60;;;;;;5060095;28;20199;-74
2021/12/08 12:36:27;;;;;;;27.90;11.33;;;-4.50;98.70;;;;;;5059017;28;20196;-75
2021/12/08 12:39:11;;;;;;;24.63;11.27;;;-4.10;99.00;;;;;;5057273;28;20733;-74
2021/12/08 12:41:38;;;;;;;29.97;12.40;;;-4.30;98.90;;;;;;5056162;28;20263;-73
2021/12/08 12:44:24;;;;;;;24.77;11.20;;;-4.40;98.80;;;;;;5040599;28;20568;-74
2021/12/08 12:47:19;;;;;;;29.00;12.73;;;-4.40;98.90;;;;;;5046894;28;20286;-74
2021/12/08 12:49:49;;;;;;;35.50;13.53;;;-4.40;98.80;;;;;;5066495;28;20193;-73
2021/12/08 12:52:18;;;;;;;31.50;13.40;;;-4.40;98.80;;;;;;5051089;28;20250;-74
2021/12/08 12:54:47;;;;;;;31.33;13.37;;;-4.40;98.90;;;;;;5053506;28;20204;-74
2021/12/08 12:57:14;;;;;;;30.20;13.67;;;-4.30;99.00;;;;;;5050924;28;20554;-73
2021/12/08 12:59:44;;;;;;;34.27;13.80;;;-3.80;99.30;;;;;;5053638;28;20208;-74
2021/12/08 13:02:20;;;;;;;30.80;12.53;;;-4.20;99.00;;;;;;5066583;28;20658;-74
2021/12/08 13:04:56;;;;;;;29.13;12.17;;;-4.20;99.00;;;;;;5069683;28;20275;-73
2021/12/08 13:07:26;;;;;;;25.40;11.03;;;-4.20;99.00;;;;;;5044293;28;20211;-74
2021/12/08 13:09:57;;;;;;;23.87;11.50;;;-4.20;98.90;;;;;;5053081;28;20194;-74
2021/12/08 13:12:27;;;;;;;23.07;10.77;;;-4.10;99.20;;;;;;5043971;28;20221;-74
2021/12/08 13:15:13;;;;;;;30.40;11.17;;;-4.30;98.90;;;;;;5054877;28;20570;-74
2021/12/08 13:18:02;;;;;;;30.77;11.90;;;-4.30;99.10;;;;;;5062118;28;20201;-74
2021/12/08 13:20:35;;;;;;;22.90;10.77;;;-4.30;99.10;;;;;;5043254;28;20233;-74
2021/12/08 13:23:08;;;;;;;29.20;11.60;;;-4.30;99.20;;;;;;5058608;28;20209;-74